createdAt,value
2019-05-13T00:01:20.580Z,100291.70
2019-05-13T00:03:47.155Z,100300.89
2019-05-13T00:06:13.772Z,100298.70
2019-05-13T00:08:40.345Z,100304.39
2019-05-13T00:11:06.962Z,100306.64
2019-05-13T00:13:33.871Z,100307.03
2019-05-13T00:16:00.517Z,100309.68
2019-05-13T00:18:27.094Z,100314.80
2019-05-13T00:20:54.313Z,100304.14
2019-05-13T00:23:23.238Z,100313.79
2019-05-13T00:25:49.383Z,100312.33
2019-05-13T00:28:15.957Z,100313.18
2019-05-13T00:30:44.457Z,100314.43
2019-05-13T00:33:10.854Z,100319.19
2019-05-13T00:35:37.475Z,100316.47
2019-05-13T00:38:04.207Z,100311.17
2019-05-13T00:40:33.429Z,100321.19
2019-05-13T00:42:59.224Z,100310.06
2019-05-13T00:45:25.818Z,100307.74
2019-05-13T00:47:53.650Z,100305.48
2019-05-13T00:50:20.485Z,100307.98
2019-05-13T00:52:47.064Z,100310.09
2019-05-13T00:55:14.813Z,100311.73
2019-05-13T00:57:43.643Z,100312.98
2019-05-13T01:00:09.961Z,100319.81
2019-05-13T01:02:36.540Z,100322.77
2019-05-13T01:05:04.290Z,100328.85
2019-05-13T01:07:31.106Z,100324.81
2019-05-13T01:09:57.706Z,100330.03
2019-05-13T01:12:24.277Z,100335.32
2019-05-13T01:14:50.849Z,100337.58
2019-05-13T01:17:17.448Z,100350.34
2019-05-13T01:19:44.021Z,100344.19
2019-05-13T01:22:10.631Z,100342.08
2019-05-13T01:24:37.225Z,100334.29
2019-05-13T01:27:04.321Z,100332.58
2019-05-13T01:29:30.998Z,100339.73
2019-05-13T01:31:57.606Z,100352.20
2019-05-13T01:34:24.172Z,100354.06
2019-05-13T01:36:50.802Z,100351.03
2019-05-13T01:39:17.385Z,100341.45
2019-05-13T01:41:44.049Z,100345.09
2019-05-13T01:44:10.650Z,100336.45
2019-05-13T01:46:37.261Z,100333.88
2019-05-13T01:49:04.950Z,100335.27
2019-05-13T01:51:33.399Z,100335.73
2019-05-13T01:54:00.185Z,100337.62
2019-05-13T01:56:26.798Z,100334.12
2019-05-13T01:58:54.149Z,100343.84
2019-05-13T02:01:20.860Z,100345.56
2019-05-13T02:03:47.423Z,100348.60
2019-05-13T02:06:14.284Z,100346.89
2019-05-13T02:08:40.904Z,100342.13
2019-05-13T02:11:07.523Z,100340.95
2019-05-13T02:13:34.635Z,100342.81
2019-05-13T02:16:03.889Z,100348.64
2019-05-13T02:18:29.731Z,100346.06
2019-05-13T02:20:56.345Z,100352.28
2019-05-13T02:23:23.875Z,100350.74
2019-05-13T02:25:50.827Z,100344.20
2019-05-13T02:28:17.404Z,100340.62
2019-05-13T02:30:45.501Z,100344.20
2019-05-13T02:33:13.412Z,100353.06
2019-05-13T02:35:43.110Z,100350.09
2019-05-13T02:38:19.646Z,100350.62
2019-05-13T02:40:36.779Z,100359.03
2019-05-13T02:43:03.398Z,100360.34
2019-05-13T02:45:33.004Z,100364.78
2019-05-13T02:47:58.308Z,100370.92
2019-05-13T02:50:24.879Z,100367.42
2019-05-13T02:52:53.114Z,100363.45
2019-05-13T02:55:22.338Z,100372.25
2019-05-13T02:57:48.294Z,100366.03
2019-05-13T03:00:14.932Z,100363.38
2019-05-13T03:02:43.969Z,100378.86
2019-05-13T03:05:13.221Z,100381.64
2019-05-13T03:07:38.177Z,100387.39
2019-05-13T03:10:04.796Z,100382.17
2019-05-13T03:12:32.241Z,100387.86
2019-05-13T03:15:02.479Z,100388.78
2019-05-13T03:17:27.425Z,100389.64
2019-05-13T03:19:54.001Z,100388.39
2019-05-13T03:22:22.431Z,100388.02
2019-05-13T03:24:52.100Z,100386.70
2019-05-13T03:27:20.211Z,100384.42
2019-05-13T03:29:45.573Z,100387.46
2019-05-13T03:32:16.405Z,100385.38
2019-05-13T03:34:45.396Z,100384.42
2019-05-13T03:37:14.705Z,100381.42
2019-05-13T03:39:37.143Z,100388.39
2019-05-13T03:42:03.761Z,100390.67
2019-05-13T03:44:32.502Z,100396.03
2019-05-13T03:46:58.649Z,100395.63
2019-05-13T03:49:25.225Z,100395.77
2019-05-13T03:51:53.453Z,100402.05
2019-05-13T03:54:22.742Z,100419.36
2019-05-13T03:56:48.522Z,100414.67
2019-05-13T03:59:15.107Z,100414.84
2019-05-13T04:01:42.738Z,100420.13
2019-05-13T04:04:12.494Z,100417.03
2019-05-13T04:06:37.876Z,100416.00
2019-05-13T04:09:20.891Z,100426.97
2019-05-13T04:11:33.219Z,100431.80
2019-05-13T04:14:02.930Z,100426.44
2019-05-13T04:16:28.211Z,100429.87
2019-05-13T04:18:54.831Z,100439.98
2019-05-13T04:21:22.787Z,100443.02
2019-05-13T04:23:52.794Z,100447.38
2019-05-13T04:26:17.984Z,100451.75
2019-05-13T04:28:44.595Z,100458.42
2019-05-13T04:31:14.035Z,100458.48
2019-05-13T04:33:42.403Z,100463.77
2019-05-13T04:36:07.803Z,100467.08
2019-05-13T04:38:34.426Z,100461.95
2019-05-13T04:41:03.452Z,100471.28
2019-05-13T04:43:33.814Z,100470.15
2019-05-13T04:45:57.614Z,100471.14
2019-05-13T04:48:24.271Z,100471.20
2019-05-13T04:50:53.250Z,100469.88
2019-05-13T04:53:22.379Z,100474.77
2019-05-13T04:55:47.480Z,100473.05
2019-05-13T04:58:14.100Z,100471.27
2019-05-13T05:00:42.630Z,100486.60
2019-05-13T05:03:09.008Z,100476.42
2019-05-13T05:05:35.645Z,100471.02
2019-05-13T05:08:03.126Z,100466.52
2019-05-13T05:10:38.139Z,100469.09
2019-05-13T05:12:58.319Z,100479.54
2019-05-13T05:15:24.962Z,100477.29
2019-05-13T05:17:52.184Z,100475.41
2019-05-13T05:20:19.018Z,100485.45
2019-05-13T05:22:45.589Z,100487.63
2019-05-13T05:25:12.204Z,100493.31
2019-05-13T05:27:38.784Z,100497.74
2019-05-13T05:30:05.398Z,100497.28
2019-05-13T05:32:35.500Z,100495.96
2019-05-13T05:35:01.189Z,100495.89
2019-05-13T05:37:27.972Z,100500.66
2019-05-13T05:39:54.588Z,100504.95
2019-05-13T05:42:21.705Z,100504.82
2019-05-13T05:44:48.428Z,100507.77
2019-05-13T05:47:15.014Z,100507.63
2019-05-13T05:49:41.598Z,100513.31
2019-05-13T05:52:08.318Z,100523.36
2019-05-13T05:54:34.888Z,100523.36
2019-05-13T05:57:01.496Z,100519.33
2019-05-13T05:59:28.071Z,100507.89
2019-05-13T06:01:54.682Z,100514.50
2019-05-13T06:04:22.089Z,100510.01
2019-05-13T06:06:48.937Z,100505.11
2019-05-13T06:09:15.516Z,100503.33
2019-05-13T06:11:42.131Z,100510.34
2019-05-13T06:14:11.122Z,100505.45
2019-05-13T06:16:37.023Z,100506.70
2019-05-13T06:19:12.085Z,100504.42
2019-05-13T06:21:38.942Z,100509.25
2019-05-13T06:24:05.591Z,100513.54
2019-05-13T06:26:32.211Z,100510.43
2019-05-13T06:28:58.804Z,100507.32
2019-05-13T06:31:25.399Z,100508.58
2019-05-13T06:33:52.094Z,100513.41
2019-05-13T06:36:18.698Z,100511.95
2019-05-13T06:38:45.277Z,100511.95
2019-05-13T06:41:14.590Z,100510.09
2019-05-13T06:43:41.852Z,100518.42
2019-05-13T06:46:08.581Z,100518.75
2019-05-13T06:48:35.162Z,100512.50
2019-05-13T06:51:02.585Z,100513.83
2019-05-13T06:53:29.336Z,100513.83
2019-05-13T06:55:55.961Z,100516.02
2019-05-13T06:58:22.543Z,100524.34
2019-05-13T07:00:51.550Z,100520.77
2019-05-13T07:03:17.444Z,100529.56
2019-05-13T07:05:44.032Z,100530.81
2019-05-13T07:08:11.972Z,100529.89
2019-05-13T07:10:41.269Z,100535.97
2019-05-13T07:13:07.286Z,100537.69
2019-05-13T07:15:33.933Z,100539.41
2019-05-13T07:18:02.291Z,100541.13
2019-05-13T07:20:28.816Z,100539.81
2019-05-13T07:22:55.423Z,100552.64
2019-05-13T07:25:22.314Z,100555.81
2019-05-13T07:27:51.467Z,100547.55
2019-05-13T07:30:17.536Z,100554.63
2019-05-13T07:32:44.135Z,100550.27
2019-05-13T07:35:14.124Z,100557.28
2019-05-13T07:37:39.037Z,100558.99
2019-05-13T07:40:05.665Z,100562.03
2019-05-13T07:42:32.296Z,100563.75
2019-05-13T07:45:01.914Z,100557.08
2019-05-13T07:47:28.512Z,100565.87
2019-05-13T07:49:55.185Z,100558.72
2019-05-13T07:52:22.746Z,100559.12
2019-05-13T07:54:51.897Z,100560.38
2019-05-13T07:57:17.960Z,100567.45
2019-05-13T07:59:44.552Z,100574.53
2019-05-13T08:02:12.430Z,100579.43
2019-05-13T08:04:41.922Z,100585.18
2019-05-13T08:07:07.599Z,100580.42
2019-05-13T08:09:34.196Z,100591.93
2019-05-13T08:12:10.653Z,100593.78
2019-05-13T08:14:34.267Z,100594.25
2019-05-13T08:17:02.543Z,100600.39
2019-05-13T08:19:29.249Z,100599.60
2019-05-13T08:21:55.846Z,100602.64
2019-05-13T08:24:22.786Z,100594.70
2019-05-13T08:26:53.163Z,100591.67
2019-05-13T08:29:21.640Z,100588.23
2019-05-13T08:31:48.486Z,100585.19
2019-05-13T08:34:15.123Z,100583.86
2019-05-13T08:36:42.657Z,100584.79
2019-05-13T08:39:09.472Z,100581.22
2019-05-13T08:41:36.098Z,100582.54
2019-05-13T08:44:02.667Z,100586.91
2019-05-13T08:46:29.276Z,100594.70
2019-05-13T08:48:55.857Z,100589.42
2019-05-13T08:51:22.476Z,100584.52
2019-05-13T08:53:51.518Z,100597.69
2019-05-13T08:56:17.427Z,100602.58
2019-05-13T08:58:44.018Z,100610.05
2019-05-13T09:01:12.381Z,100610.98
2019-05-13T09:03:41.526Z,100612.30
2019-05-13T09:06:07.335Z,100615.81
2019-05-13T09:08:34.008Z,100622.42
2019-05-13T09:13:28.975Z,100621.10
2019-05-13T09:15:55.555Z,100621.44
2019-05-13T09:18:22.943Z,100620.11
2019-05-13T09:20:51.869Z,100631.88
2019-05-13T09:23:17.987Z,100629.23
2019-05-13T09:25:44.615Z,100628.31
2019-05-13T09:28:12.495Z,100627.39
2019-05-13T09:30:39.213Z,100626.06
2019-05-13T09:33:05.820Z,100629.17
2019-05-13T09:35:32.400Z,100627.91
2019-05-13T09:37:59.090Z,100627.05
2019-05-13T09:40:25.773Z,100628.77
2019-05-13T09:42:55.311Z,100628.31
2019-05-13T09:45:21.716Z,100627.85
2019-05-13T09:47:48.352Z,100631.35
2019-05-13T09:50:28.574Z,100622.92
2019-05-13T09:52:43.271Z,100624.73
2019-05-13T09:55:24.811Z,100620.27
2019-05-13T09:57:38.180Z,100627.75
2019-05-13T10:00:04.757Z,100622.39
2019-05-13T10:02:32.042Z,100625.03
2019-05-13T10:05:02.453Z,100627.09
2019-05-13T10:07:28.302Z,100631.45
2019-05-13T10:09:54.947Z,100635.42
2019-05-13T10:12:24.270Z,100632.31
2019-05-13T10:14:49.867Z,100631.84
2019-05-13T10:17:16.494Z,100627.88
2019-05-13T10:19:43.106Z,100626.49
2019-05-13T10:22:11.878Z,100622.98
2019-05-13T10:24:38.057Z,100633.97
2019-05-13T10:27:04.680Z,100632.64
2019-05-13T10:29:32.071Z,100634.56
2019-05-13T10:31:59.043Z,100642.30
2019-05-13T10:34:25.707Z,100639.36
2019-05-13T10:36:52.528Z,100642.93
2019-05-13T10:39:19.137Z,100644.31
2019-05-13T10:44:31.218Z,100644.05
2019-05-13T10:46:57.827Z,100643.78
2019-05-13T10:49:24.482Z,100648.15
2019-05-13T10:51:52.649Z,100648.08
2019-05-13T10:54:21.527Z,100646.30
2019-05-13T10:56:47.685Z,100647.49
2019-05-13T10:59:15.298Z,100644.31
2019-05-13T11:01:42.775Z,100639.75
2019-05-13T11:04:13.370Z,100636.95
2019-05-13T11:06:37.849Z,100642.97
2019-05-13T11:09:04.644Z,100647.66
2019-05-13T11:11:32.955Z,100641.38
2019-05-13T11:14:10.023Z,100644.25
2019-05-13T11:16:27.904Z,100639.22
2019-05-13T11:18:55.455Z,100632.87
2019-05-13T11:21:22.418Z,100627.44
2019-05-13T11:23:49.572Z,100638.65
2019-05-13T11:26:17.434Z,100629.18
2019-05-13T11:28:44.022Z,100637.78
2019-05-13T11:31:10.593Z,100634.92
2019-05-13T11:33:37.215Z,100626.27
2019-05-13T11:36:03.818Z,100635.62
2019-05-13T11:38:32.621Z,100632.98
2019-05-13T11:40:58.753Z,100635.11
2019-05-13T11:43:28.472Z,100632.50
2019-05-13T11:45:53.652Z,100642.24
2019-05-13T11:48:23.199Z,100647.65
2019-05-13T11:50:50.427Z,100654.84
2019-05-13T11:53:31.677Z,100657.64
2019-05-13T11:55:45.201Z,100654.63
2019-05-13T11:58:13.901Z,100644.63
2019-05-13T12:00:42.572Z,100650.17
2019-05-13T12:03:08.564Z,100639.34
2019-05-13T12:05:35.232Z,100641.66
2019-05-13T12:08:01.823Z,100647.20
2019-05-13T12:10:28.402Z,100637.77
2019-05-13T12:12:54.987Z,100644.26
2019-05-13T12:15:32.815Z,100646.76
2019-05-13T12:17:52.359Z,100642.59
2019-05-13T12:20:18.205Z,100640.26
2019-05-13T12:22:45.060Z,100640.58
2019-05-13T12:25:13.835Z,100641.36
2019-05-13T12:27:41.904Z,100647.37
2019-05-13T12:30:08.309Z,100637.35
2019-05-13T12:32:34.979Z,100648.59
2019-05-13T12:35:03.571Z,100637.78
2019-05-13T12:37:30.149Z,100644.54
2019-05-13T12:39:58.260Z,100635.95
2019-05-13T12:42:24.837Z,100630.95
2019-05-13T12:45:04.579Z,100632.12
2019-05-13T12:47:22.099Z,100636.81
2019-05-13T12:49:48.088Z,100632.25
2019-05-13T12:52:14.682Z,100637.09
2019-05-13T12:54:43.710Z,100637.01
2019-05-13T12:57:13.167Z,100634.74
2019-05-13T12:59:37.963Z,100633.97
2019-05-13T13:02:04.533Z,100633.97
2019-05-13T13:04:33.479Z,100637.56
2019-05-13T13:06:59.448Z,100633.50
2019-05-13T13:09:26.041Z,100629.75
2019-05-13T13:11:54.420Z,100638.41
2019-05-13T13:14:20.957Z,100637.39
2019-05-13T13:16:47.719Z,100638.84
2019-05-13T13:19:15.222Z,100629.22
2019-05-13T13:21:41.889Z,100629.56
2019-05-13T13:24:08.889Z,100626.34
2019-05-13T13:26:35.465Z,100626.59
2019-05-13T13:29:02.088Z,100624.95
2019-05-13T13:31:28.780Z,100622.36
2019-05-13T13:33:55.996Z,100617.18
2019-05-13T13:36:24.151Z,100615.08
2019-05-13T13:38:56.041Z,100613.09
2019-05-13T13:41:22.654Z,100616.85
2019-05-13T13:43:47.797Z,100612.20
2019-05-13T13:46:31.672Z,100612.48
2019-05-13T13:48:44.015Z,100612.32
2019-05-13T13:51:14.013Z,100610.50
2019-05-13T13:53:43.845Z,100611.17
2019-05-13T13:56:07.981Z,100616.41
2019-05-13T13:58:34.599Z,100613.74
2019-05-13T14:01:11.198Z,100611.55
2019-05-13T14:03:32.939Z,100607.66
2019-05-13T14:05:57.869Z,100612.98
2019-05-13T14:06:25.037Z,100621.56
2019-05-13T14:08:24.576Z,100607.75
2019-05-13T14:10:51.797Z,100615.06
2019-05-13T14:13:18.385Z,100616.22
2019-05-13T14:15:44.993Z,100614.31
2019-05-13T14:18:11.584Z,100608.78
2019-05-13T14:20:38.214Z,100613.08
2019-05-13T14:23:04.781Z,100607.64
2019-05-13T14:25:32.465Z,100599.45
2019-05-13T14:27:59.283Z,100602.68
2019-05-13T14:30:25.890Z,100592.34
2019-05-13T14:32:52.546Z,100595.27
2019-05-13T14:35:21.822Z,100603.99
2019-05-13T14:37:51.713Z,100598.97
2019-05-13T14:40:17.806Z,100590.69
2019-05-13T14:42:44.453Z,100590.02
2019-05-13T14:45:12.134Z,100596.37
2019-05-13T14:47:41.006Z,100592.17
2019-05-13T14:50:07.343Z,100593.03
2019-05-13T14:52:33.914Z,100582.44
2019-05-13T14:55:02.195Z,100592.69
2019-05-13T14:57:28.806Z,100592.27
2019-05-13T14:59:55.404Z,100593.25
2019-05-13T15:02:22.343Z,100597.66
2019-05-13T15:04:48.960Z,100601.94
2019-05-13T15:07:15.540Z,100602.75
2019-05-13T15:09:42.331Z,100589.63
2019-05-13T15:12:08.910Z,100603.94
2019-05-13T15:14:35.518Z,100605.00
2019-05-13T15:17:06.367Z,100606.87
2019-05-13T15:19:31.724Z,100612.36
2019-05-13T15:21:58.437Z,100616.90
2019-05-13T15:24:25.221Z,100615.34
2019-05-13T15:26:51.846Z,100624.34
2019-05-13T15:29:18.487Z,100621.41
2019-05-13T15:31:45.057Z,100620.63
2019-05-13T15:34:11.662Z,100621.19
2019-05-13T15:36:38.278Z,100623.06
2019-05-13T15:39:04.885Z,100622.29
2019-05-13T15:41:31.557Z,100622.84
2019-05-13T15:43:58.151Z,100621.20
2019-05-13T15:46:24.815Z,100623.51
2019-05-13T15:48:51.644Z,100620.16
2019-05-13T15:51:18.333Z,100618.52
2019-05-13T15:53:44.940Z,100616.88
2019-05-13T15:56:12.656Z,100617.98
2019-05-13T15:58:41.484Z,100619.11
2019-05-13T16:01:07.708Z,100622.01
2019-05-13T16:03:34.282Z,100629.75
2019-05-13T16:06:01.645Z,100626.86
2019-05-13T16:08:28.460Z,100628.38
2019-05-13T16:10:55.086Z,100630.72
2019-05-13T16:13:22.287Z,100633.53
2019-05-13T16:15:49.091Z,100624.79
2019-05-13T16:18:16.027Z,100627.99
2019-05-13T16:20:45.242Z,100624.16
2019-05-13T16:23:12.374Z,100628.34
2019-05-13T16:25:41.459Z,100615.61
2019-05-13T16:28:07.452Z,100610.93
2019-05-13T16:30:34.075Z,100611.52
2019-05-13T16:33:02.898Z,100610.34
2019-05-13T16:35:31.712Z,100611.47
2019-05-13T16:37:57.353Z,100608.98
2019-05-13T16:40:23.963Z,100609.13
2019-05-13T16:42:51.908Z,100608.81
2019-05-13T16:45:18.761Z,100605.84
2019-05-13T16:47:56.726Z,100617.97
2019-05-13T16:50:13.767Z,100614.53
2019-05-13T16:52:41.770Z,100614.69
2019-05-13T16:55:08.619Z,100610.86
2019-05-13T16:57:35.201Z,100620.30
2019-05-13T17:00:02.398Z,100611.16
2019-05-13T17:02:29.396Z,100615.72
2019-05-13T17:04:56.239Z,100611.89
2019-05-13T17:07:27.165Z,100608.84
2019-05-13T17:09:53.731Z,100612.04
2019-05-13T17:12:21.318Z,100612.19
2019-05-13T17:14:52.589Z,100615.38
2019-05-13T17:17:19.301Z,100618.11
2019-05-13T17:19:45.881Z,100625.78
2019-05-13T17:22:13.969Z,100624.99
2019-05-13T17:24:42.638Z,100621.56
2019-05-13T17:27:08.906Z,100630.91
2019-05-13T17:29:35.492Z,100630.52
2019-05-13T17:32:02.590Z,100629.73
2019-05-13T17:34:31.600Z,100631.92
2019-05-13T17:36:59.022Z,100630.73
2019-05-13T17:39:25.616Z,100632.60
2019-05-13T17:41:52.334Z,100639.23
2019-05-13T17:44:18.912Z,100636.19
2019-05-13T17:46:45.528Z,100639.63
2019-05-13T17:49:12.165Z,100637.98
2019-05-13T17:51:38.825Z,100645.56
2019-05-13T17:54:05.409Z,100644.78
2019-05-13T17:56:32.359Z,100644.46
2019-05-13T17:58:59.068Z,100643.67
2019-05-13T18:01:25.665Z,100648.19
2019-05-13T18:03:52.384Z,100650.44
2019-05-13T18:06:18.999Z,100649.73
2019-05-13T18:08:45.572Z,100656.06
2019-05-13T18:11:12.213Z,100656.59
2019-05-13T18:13:41.432Z,100653.16
2019-05-13T18:16:07.319Z,100659.07
2019-05-13T18:18:43.106Z,100667.16
2019-05-13T18:21:02.244Z,100665.98
2019-05-13T18:23:28.826Z,100664.50
2019-05-13T18:25:55.503Z,100677.09
2019-05-13T18:28:28.376Z,100675.11
2019-05-13T18:30:51.492Z,100677.08
2019-05-13T18:33:18.214Z,100687.02
2019-05-13T18:35:44.837Z,100688.52
2019-05-13T18:38:11.951Z,100678.05
2019-05-13T18:40:38.719Z,100681.33
2019-05-13T18:43:05.303Z,100681.08
2019-05-13T18:45:31.872Z,100679.48
2019-05-13T18:47:58.497Z,100680.08
2019-05-13T18:50:25.067Z,100683.30
2019-05-13T18:52:52.501Z,100684.36
2019-05-13T18:55:19.267Z,100681.84
2019-05-13T18:57:45.859Z,100686.34
2019-05-13T19:00:12.444Z,100680.31
2019-05-13T19:02:41.336Z,100685.77
2019-05-13T19:05:07.349Z,100681.47
2019-05-13T19:07:33.970Z,100680.74
2019-05-13T19:10:02.549Z,100680.02
2019-05-13T19:12:31.268Z,100674.85
2019-05-13T19:14:58.412Z,100680.31
2019-05-13T19:17:25.050Z,100677.39
2019-05-13T19:19:53.424Z,100684.14
2019-05-13T19:22:21.424Z,100686.84
2019-05-13T19:24:48.077Z,100685.19
2019-05-13T19:27:14.668Z,100682.14
2019-05-13T19:29:42.502Z,100673.51
2019-05-13T19:32:09.325Z,100667.88
2019-05-13T19:34:35.904Z,100675.95
2019-05-13T19:37:02.674Z,100668.66
2019-05-13T19:39:31.190Z,100668.79
2019-05-13T19:41:57.714Z,100672.05
2019-05-13T19:44:24.288Z,100663.91
2019-05-13T19:46:52.362Z,100665.42
2019-05-13T19:49:29.624Z,100667.82
2019-05-13T19:51:47.471Z,100661.40
2019-05-13T19:54:14.047Z,100656.23
2019-05-13T19:56:40.653Z,100659.00
2019-05-13T19:59:07.220Z,100657.80
2019-05-13T20:01:33.819Z,100648.70
2019-05-13T20:04:02.342Z,100649.23
2019-05-13T20:06:28.756Z,100647.11
2019-05-13T20:08:55.338Z,100646.83
2019-05-13T20:11:21.955Z,100639.95
2019-05-13T20:13:48.514Z,100640.96
2019-05-13T20:16:15.093Z,100636.26
2019-05-13T20:18:41.702Z,100646.05
2019-05-13T20:21:10.490Z,100636.47
2019-05-13T20:23:36.627Z,100632.22
2019-05-13T20:26:03.210Z,100631.05
2019-05-13T20:28:31.732Z,100633.36
2019-05-13T20:30:58.124Z,100627.33
2019-05-13T20:33:24.818Z,100623.95
2019-05-13T20:35:51.419Z,100625.84
2019-05-13T20:38:18.084Z,100625.94
2019-05-13T20:40:44.685Z,100625.20
2019-05-13T20:43:11.997Z,100624.39
2019-05-13T20:45:38.711Z,100620.49
2019-05-13T20:48:05.315Z,100623.25
2019-05-13T20:50:31.893Z,100626.01
2019-05-13T20:52:58.527Z,100621.34
2019-05-13T20:55:25.108Z,100630.17
2019-05-13T20:57:53.058Z,100632.94
2019-05-13T21:00:19.873Z,100632.13
2019-05-13T21:02:46.475Z,100628.69
2019-05-13T21:05:13.052Z,100636.61
2019-05-13T21:07:41.725Z,100626.97
2019-05-13T21:10:07.975Z,100624.84
2019-05-13T21:12:34.584Z,100624.44
2019-05-13T21:15:01.549Z,100621.80
2019-05-13T21:17:28.349Z,100616.58
2019-05-13T21:19:59.821Z,100619.22
2019-05-13T21:22:23.261Z,100609.61
2019-05-13T21:24:51.522Z,100617.53
2019-05-13T21:27:18.333Z,100611.39
2019-05-13T21:29:44.911Z,100607.80
2019-05-13T21:32:11.902Z,100606.11
2019-05-13T21:34:38.548Z,100604.78
2019-05-13T21:37:05.169Z,100597.33
2019-05-13T21:39:32.104Z,100597.33
2019-05-13T21:41:58.820Z,100600.02
2019-05-13T21:44:25.392Z,100592.96
2019-05-13T21:46:51.968Z,100601.34
2019-05-13T21:49:21.141Z,100594.74
2019-05-13T21:51:46.872Z,100595.20
2019-05-13T21:54:13.489Z,100592.16
2019-05-13T21:56:42.409Z,100593.08
2019-05-13T21:59:08.388Z,100583.90
2019-05-13T22:01:34.962Z,100594.45
2019-05-13T22:04:01.806Z,100595.38
2019-05-13T22:06:28.419Z,100592.33
2019-05-13T22:08:55.056Z,100582.23
2019-05-13T22:11:22.239Z,100586.19
2019-05-13T22:13:51.259Z,100580.05
2019-05-13T22:16:17.305Z,100578.27
2019-05-13T22:18:43.903Z,100573.45
2019-05-13T22:21:11.830Z,100575.63
2019-05-13T22:23:41.035Z,100576.09
2019-05-13T22:26:06.982Z,100574.77
2019-05-13T22:28:33.591Z,100576.09
2019-05-13T22:31:01.304Z,100575.69
2019-05-13T22:33:28.365Z,100572.25
2019-05-13T22:35:54.937Z,100568.80
2019-05-13T22:38:21.556Z,100568.03
2019-05-13T22:40:48.146Z,100568.16
2019-05-13T22:43:14.745Z,100562.07
2019-05-13T22:45:41.937Z,100559.03
2019-05-13T22:48:08.903Z,100563.91
2019-05-13T22:50:35.474Z,100558.69
2019-05-13T22:53:02.094Z,100555.24
2019-05-13T22:55:28.668Z,100557.02
2019-05-13T22:57:55.274Z,100553.98
2019-05-13T23:00:22.444Z,100548.70
2019-05-13T23:02:49.173Z,100543.94
2019-05-13T23:05:15.741Z,100539.21
2019-05-13T23:07:42.358Z,100543.62
2019-05-13T23:10:08.983Z,100544.14
2019-05-13T23:12:35.581Z,100548.62
2019-05-13T23:15:02.162Z,100544.72
2019-05-13T23:17:28.751Z,100544.83
2019-05-13T23:19:55.338Z,100542.65
2019-05-13T23:22:21.924Z,100536.52
2019-05-13T23:24:48.530Z,100544.08
2019-05-13T23:27:15.111Z,100539.41
2019-05-13T23:29:41.708Z,100535.11
2019-05-13T23:32:08.279Z,100531.66
2019-05-13T23:34:34.878Z,100532.64
2019-05-13T23:37:01.452Z,100525.23
2019-05-13T23:39:28.136Z,100520.02
2019-05-13T23:41:54.715Z,100520.99
2019-05-13T23:44:27.136Z,100524.17
2019-05-13T23:46:51.398Z,100517.18
2019-05-13T23:49:18.140Z,100516.78
2019-05-13T23:51:44.716Z,100508.92
2019-05-13T23:54:12.226Z,100513.69
2019-05-13T23:56:38.992Z,100504.97
2019-05-13T23:59:05.593Z,100504.91
